createdAt,value
2023-04-10T00:00:11.738Z,101032.69
2023-04-10T00:03:03.303Z,101036.20
2023-04-10T00:05:31.421Z,101033.16
2023-04-10T00:07:59.113Z,101038.65
2023-04-10T00:10:29.260Z,101033.77
2023-04-10T00:12:57.582Z,101039.20
2023-04-10T00:15:25.388Z,101041.30
2023-04-10T00:17:55.356Z,101038.73
2023-04-10T00:20:26.065Z,101044.25
2023-04-10T00:22:54.525Z,101046.33
2023-04-10T00:25:23.104Z,101040.23
2023-04-10T00:27:50.879Z,101041.36
2023-04-10T00:30:19.644Z,101039.02
2023-04-10T00:32:47.782Z,101039.16
2023-04-10T00:35:15.651Z,101039.77
2023-04-10T00:37:43.301Z,101042.08
2023-04-10T00:40:11.289Z,101042.27
2023-04-10T00:42:39.720Z,101041.77
2023-04-10T00:45:07.771Z,101038.34
2023-04-10T00:47:37.738Z,101034.94
2023-04-10T00:50:06.398Z,101030.70
2023-04-10T00:52:34.553Z,101032.31
2023-04-10T00:55:02.376Z,101034.42
2023-04-10T00:57:30.089Z,101033.45
2023-04-10T00:59:58.179Z,101034.94
2023-04-10T01:02:27.032Z,101042.23
2023-04-10T01:04:54.892Z,101044.16
2023-04-10T01:07:40.395Z,101039.99
2023-04-10T01:10:15.687Z,101040.84
2023-04-10T01:12:49.403Z,101038.13
2023-04-10T01:15:18.954Z,101034.95
2023-04-10T01:17:57.229Z,101034.80
2023-04-10T01:20:26.657Z,101031.38
2023-04-10T01:23:09.488Z,101030.48
2023-04-10T01:25:43.510Z,101032.89
2023-04-10T01:28:28.460Z,101030.04
2023-04-10T01:31:01.285Z,101029.14
2023-04-10T01:33:37.519Z,101027.56
2023-04-10T01:36:06.557Z,101027.73
2023-04-10T01:38:36.252Z,101025.84
2023-04-10T01:41:05.327Z,101032.20
2023-04-10T01:43:34.239Z,101036.85
2023-04-10T01:46:03.858Z,101038.60
2023-04-10T01:48:31.781Z,101040.88
2023-04-10T01:51:01.622Z,101039.77
2023-04-10T01:53:31.425Z,101032.41
2023-04-10T01:55:59.878Z,101034.25
2023-04-10T01:58:27.612Z,101034.73
2023-04-10T02:00:57.232Z,101035.52
2023-04-10T02:03:25.326Z,101038.52
2023-04-10T02:06:10.338Z,101038.02
2023-04-10T02:08:41.300Z,101039.65
2023-04-10T02:11:22.639Z,101046.80
2023-04-10T02:13:54.094Z,101045.27
2023-04-10T02:16:22.683Z,101047.05
2023-04-10T02:18:51.611Z,101047.98
2023-04-10T02:21:19.385Z,101045.69
2023-04-10T02:23:47.086Z,101039.88
2023-04-10T02:26:16.414Z,101034.17
2023-04-10T02:28:44.110Z,101034.60
2023-04-10T02:31:11.861Z,101033.85
2023-04-10T02:33:39.656Z,101036.95
2023-04-10T02:36:07.757Z,101039.90
2023-04-10T02:38:35.700Z,101037.50
2023-04-10T02:41:03.562Z,101040.98
2023-04-10T02:43:31.373Z,101040.38
2023-04-10T02:45:59.971Z,101045.20
2023-04-10T02:48:28.970Z,101045.73
2023-04-10T02:51:00.227Z,101049.45
2023-04-10T02:53:29.420Z,101044.61
2023-04-10T02:55:59.479Z,101053.21
2023-04-10T02:58:27.926Z,101049.95
2023-04-10T03:00:57.819Z,101050.03
2023-04-10T03:03:51.506Z,101052.52
2023-04-10T03:06:28.712Z,101053.24
2023-04-10T03:08:57.369Z,101056.38
2023-04-10T03:11:25.065Z,101053.40
2023-04-10T03:13:53.238Z,101052.41
2023-04-10T03:16:21.207Z,101050.52
2023-04-10T03:18:49.173Z,101048.11
2023-04-10T03:21:17.189Z,101049.16
2023-04-10T03:23:44.878Z,101049.13
2023-04-10T03:26:12.558Z,101049.23
2023-04-10T03:28:41.352Z,101053.23
2023-04-10T03:31:12.269Z,101054.59
2023-04-10T03:33:41.179Z,101051.66
2023-04-10T03:36:09.239Z,101051.20
2023-04-10T03:38:37.048Z,101056.74
2023-04-10T03:41:05.500Z,101059.02
2023-04-10T03:43:33.777Z,101063.48
2023-04-10T03:46:02.459Z,101061.60
2023-04-10T03:48:31.772Z,101061.44
2023-04-10T03:50:59.742Z,101061.85
2023-04-10T03:53:27.784Z,101066.95
2023-04-10T03:55:56.040Z,101066.71
2023-04-10T03:58:24.844Z,101064.70
2023-04-10T04:00:53.145Z,101065.42
2023-04-10T04:03:31.154Z,101063.73
2023-04-10T04:06:07.414Z,101067.80
2023-04-10T04:08:36.438Z,101064.92
2023-04-10T04:11:20.257Z,101069.22
2023-04-10T04:13:58.784Z,101071.63
2023-04-10T04:16:47.235Z,101075.16
2023-04-10T04:19:30.144Z,101074.44
2023-04-10T04:22:15.293Z,101077.22
2023-04-10T04:25:01.735Z,101077.05
2023-04-10T04:27:41.704Z,101077.13
2023-04-10T04:30:32.537Z,101079.42
2023-04-10T04:33:16.231Z,101077.13
2023-04-10T04:36:10.334Z,101080.39
2023-04-10T04:38:55.667Z,101085.08
2023-04-10T04:41:39.274Z,101088.63
2023-04-10T04:44:23.987Z,101091.26
2023-04-10T04:47:07.629Z,101093.47
2023-04-10T04:49:51.369Z,101095.85
2023-04-10T04:52:30.629Z,101097.86
2023-04-10T04:55:12.848Z,101097.31
2023-04-10T04:57:54.790Z,101096.02
2023-04-10T05:00:30.806Z,101098.17
2023-04-10T05:03:08.479Z,101095.42
2023-04-10T05:05:42.584Z,101096.67
2023-04-10T05:08:26.523Z,101098.83
2023-04-10T05:11:03.777Z,101104.77
2023-04-10T05:13:47.378Z,101100.94
2023-04-10T05:16:31.068Z,101106.48
2023-04-10T05:19:14.981Z,101109.88
2023-04-10T05:21:58.710Z,101112.31
2023-04-10T05:24:42.464Z,101114.59
2023-04-10T05:27:22.707Z,101118.80
2023-04-10T05:30:06.837Z,101122.09
2023-04-10T05:32:41.803Z,101123.33
2023-04-10T05:35:25.651Z,101125.36
2023-04-10T05:38:09.511Z,101132.97
2023-04-10T05:40:54.117Z,101130.16
2023-04-10T05:43:37.838Z,101130.96
2023-04-10T05:46:28.359Z,101133.22
2023-04-10T05:49:12.054Z,101135.16
2023-04-10T05:51:55.784Z,101134.67
2023-04-10T05:54:39.659Z,101136.20
2023-04-10T05:57:22.106Z,101138.61
2023-04-10T06:00:03.734Z,101133.68
2023-04-10T06:02:47.546Z,101134.95
2023-04-10T06:05:21.554Z,101135.61
2023-04-10T06:07:49.642Z,101132.58
2023-04-10T06:10:17.304Z,101129.33
2023-04-10T06:12:45.603Z,101135.15
2023-04-10T06:15:14.666Z,101130.13
2023-04-10T06:17:46.238Z,101128.64
2023-04-10T06:20:14.147Z,101130.17
2023-04-10T06:22:41.876Z,101127.09
2023-04-10T06:25:09.943Z,101127.82
2023-04-10T06:27:37.725Z,101129.10
2023-04-10T06:30:06.153Z,101126.30
2023-04-10T06:32:33.935Z,101131.67
2023-04-10T06:35:02.565Z,101134.63
2023-04-10T06:37:34.033Z,101138.84
2023-04-10T06:40:07.275Z,101136.88
2023-04-10T06:42:35.267Z,101139.55
2023-04-10T06:45:09.435Z,101140.59
2023-04-10T06:47:37.148Z,101143.75
2023-04-10T06:50:05.329Z,101138.89
2023-04-10T06:52:33.043Z,101141.33
2023-04-10T06:55:00.865Z,101144.21
2023-04-10T06:57:28.853Z,101146.48
2023-04-10T06:59:56.733Z,101148.25
2023-04-10T07:02:24.661Z,101147.98
2023-04-10T07:04:53.690Z,101149.48
2023-04-10T07:07:21.751Z,101150.00
2023-04-10T07:09:49.496Z,101143.62
2023-04-10T07:12:17.181Z,101144.71
2023-04-10T07:14:44.905Z,101143.73
2023-04-10T07:17:12.645Z,101147.67
2023-04-10T07:19:40.518Z,101146.20
2023-04-10T07:22:08.232Z,101148.71
2023-04-10T07:24:36.208Z,101146.00
2023-04-10T07:27:03.996Z,101149.06
2023-04-10T07:29:31.760Z,101144.82
2023-04-10T07:31:59.640Z,101145.54
2023-04-10T07:34:27.588Z,101146.88
2023-04-10T07:36:55.276Z,101148.59
2023-04-10T07:39:22.956Z,101151.23
2023-04-10T07:41:52.830Z,101149.75
2023-04-10T07:44:20.588Z,101149.10
2023-04-10T07:46:48.314Z,101146.41
2023-04-10T07:49:16.224Z,101152.22
2023-04-10T07:51:43.953Z,101147.56
2023-04-10T07:54:11.640Z,101147.69
2023-04-10T07:56:39.346Z,101145.86
2023-04-10T07:59:07.057Z,101147.77
2023-04-10T08:01:34.792Z,101146.52
2023-04-10T08:04:05.597Z,101147.03
2023-04-10T08:06:33.912Z,101140.22
2023-04-10T08:09:02.144Z,101140.04
2023-04-10T08:11:35.267Z,101137.81
2023-04-10T08:14:05.427Z,101135.55
2023-04-10T08:16:35.616Z,101135.48
2023-04-10T08:19:03.748Z,101134.66
2023-04-10T08:21:32.177Z,101133.73
2023-04-10T08:24:03.777Z,101134.09
2023-04-10T08:26:31.550Z,101134.77
2023-04-10T08:29:00.636Z,101130.88
2023-04-10T08:31:28.927Z,101133.42
2023-04-10T08:33:57.425Z,101133.73
2023-04-10T08:36:26.596Z,101129.03
2023-04-10T08:38:54.333Z,101128.84
2023-04-10T08:41:22.097Z,101127.86
2023-04-10T08:43:50.926Z,101125.35
2023-04-10T08:46:18.679Z,101124.52
2023-04-10T08:48:55.043Z,101124.04
2023-04-10T08:51:26.774Z,101124.45
2023-04-10T08:53:58.410Z,101122.48
2023-04-10T08:56:26.850Z,101125.88
2023-04-10T08:58:54.830Z,101121.70
2023-04-10T09:01:23.018Z,101113.66
2023-04-10T09:03:51.443Z,101108.86
2023-04-10T09:06:19.334Z,101111.35
2023-04-10T09:08:46.993Z,101111.06
2023-04-10T09:11:14.706Z,101108.16
2023-04-10T09:13:43.869Z,101108.52
2023-04-10T09:16:14.957Z,101108.05
2023-04-10T09:18:42.902Z,101101.13
2023-04-10T09:21:11.839Z,101101.20
2023-04-10T09:23:41.065Z,101099.71
2023-04-10T09:26:24.682Z,101095.63
2023-04-10T09:28:56.783Z,101091.63
2023-04-10T09:31:32.084Z,101089.56
2023-04-10T09:34:16.079Z,101091.05
2023-04-10T09:36:44.897Z,101086.99
2023-04-10T09:39:12.795Z,101084.17
2023-04-10T09:41:47.962Z,101079.23
2023-04-10T09:44:17.232Z,101076.25
2023-04-10T09:46:45.502Z,101074.34
2023-04-10T09:49:13.297Z,101067.51
2023-04-10T09:51:42.606Z,101063.81
2023-04-10T09:54:10.306Z,101063.98
2023-04-10T09:56:38.945Z,101061.23
2023-04-10T09:59:07.440Z,101056.55
2023-04-10T10:01:37.556Z,101054.73
2023-04-10T10:04:05.725Z,101051.88
2023-04-10T10:06:33.617Z,101051.28
2023-04-10T10:09:02.910Z,101044.92
2023-04-10T10:11:35.408Z,101042.87
2023-04-10T10:14:06.764Z,101043.78
2023-04-10T10:16:40.394Z,101040.95
2023-04-10T10:19:24.580Z,101039.25
2023-04-10T10:21:53.257Z,101032.84
2023-04-10T10:24:23.482Z,101034.41
2023-04-10T10:26:51.881Z,101030.95
2023-04-10T10:29:21.306Z,101028.63
2023-04-10T10:31:49.388Z,101028.40
2023-04-10T10:34:17.702Z,101024.55
2023-04-10T10:36:45.690Z,101017.39
2023-04-10T10:39:30.400Z,101018.91
2023-04-10T10:42:14.021Z,101011.40
2023-04-10T10:44:47.944Z,101012.85
2023-04-10T10:47:18.361Z,101009.04
2023-04-10T10:50:01.974Z,101006.77
2023-04-10T10:52:46.040Z,101004.77
2023-04-10T10:55:34.702Z,100997.64
2023-04-10T10:58:03.462Z,101000.16
2023-04-10T11:00:55.015Z,100995.23
2023-04-10T11:03:22.997Z,100987.33
2023-04-10T11:05:58.624Z,100988.33
2023-04-10T11:08:46.792Z,100984.94
2023-04-10T11:11:15.941Z,100982.84
2023-04-10T11:13:49.859Z,100981.67
2023-04-10T11:16:18.421Z,100979.35
2023-04-10T11:18:46.179Z,100976.38
2023-04-10T11:21:15.514Z,100970.17
2023-04-10T11:23:59.411Z,100969.88
2023-04-10T11:26:33.232Z,100963.12
2023-04-10T11:29:01.562Z,100961.52
2023-04-10T11:31:29.536Z,100960.39
2023-04-10T11:33:59.947Z,100962.98
2023-04-10T11:36:27.898Z,100957.17
2023-04-10T11:39:00.013Z,100955.11
2023-04-10T11:41:34.705Z,100954.52
2023-04-10T11:44:03.630Z,100954.52
2023-04-10T11:46:31.782Z,100950.48
2023-04-10T11:49:00.579Z,100948.63
2023-04-10T11:51:28.708Z,100944.92
2023-04-10T11:54:12.466Z,100947.80
2023-04-10T11:56:41.499Z,100944.63
2023-04-10T11:59:11.040Z,100942.73
2023-04-10T12:01:42.701Z,100937.26
2023-04-10T12:04:14.513Z,100938.59
2023-04-10T12:06:46.902Z,100934.16
2023-04-10T12:09:15.981Z,100928.86
2023-04-10T12:11:59.750Z,100925.64
2023-04-10T12:14:33.567Z,100922.73
2023-04-10T12:17:02.423Z,100924.27
2023-04-10T12:19:30.858Z,100922.37
2023-04-10T12:21:59.575Z,100911.79
2023-04-10T12:24:43.627Z,100909.38
2023-04-10T12:27:27.674Z,100899.88
2023-04-10T12:29:56.959Z,100904.43
2023-04-10T12:32:25.617Z,100900.46
2023-04-10T12:34:57.249Z,104665.64
2023-04-10T12:37:28.459Z,100897.96
2023-04-10T12:40:12.077Z,100890.44
2023-04-10T12:42:40.252Z,100891.97
2023-04-10T12:45:10.002Z,100889.33
2023-04-10T12:47:53.872Z,100889.19
2023-04-10T12:50:22.227Z,100881.92
2023-04-10T12:53:11.848Z,100885.67
2023-04-10T12:55:42.117Z,100877.80
2023-04-10T12:58:18.045Z,100881.74
2023-04-10T13:00:47.091Z,100881.48
2023-04-10T13:03:18.594Z,100873.23
2023-04-10T13:05:47.007Z,100872.90
2023-04-10T13:08:14.866Z,100866.52
2023-04-10T13:10:43.563Z,100866.59
2023-04-10T13:13:12.963Z,100863.88
2023-04-10T13:15:40.949Z,100863.95
2023-04-10T13:18:10.404Z,100863.36
2023-04-10T13:20:39.698Z,100856.39
2023-04-10T13:23:07.942Z,100851.80
2023-04-10T13:25:39.643Z,100855.71
2023-04-10T13:28:15.728Z,100852.88
2023-04-10T13:30:43.458Z,100848.52
2023-04-10T13:33:11.260Z,100843.27
2023-04-10T13:35:40.464Z,100841.14
2023-04-10T13:38:09.405Z,100841.74
2023-04-10T13:40:37.870Z,100838.80
2023-04-10T13:43:06.227Z,100837.54
2023-04-10T13:45:34.826Z,100832.32
2023-04-10T13:48:03.812Z,100831.24
2023-04-10T13:50:31.901Z,100829.14
2023-04-10T13:52:59.701Z,100825.77
2023-04-10T13:55:27.407Z,100819.27
2023-04-10T13:57:55.155Z,100815.18
2023-04-10T14:00:23.228Z,100819.03
2023-04-10T14:02:51.087Z,100813.30
2023-04-10T14:05:19.167Z,100805.89
2023-04-10T14:07:47.092Z,100804.98
2023-04-10T14:10:14.768Z,100809.60
2023-04-10T14:12:42.617Z,100802.98
2023-04-10T14:15:12.832Z,100800.99
2023-04-10T14:17:40.731Z,100802.92
2023-04-10T14:20:11.309Z,100796.58
2023-04-10T14:22:39.195Z,100796.60
2023-04-10T14:25:13.193Z,100790.27
2023-04-10T14:27:42.586Z,100779.24
2023-04-10T14:30:10.718Z,100772.70
2023-04-10T14:32:39.372Z,100769.08
2023-04-10T14:35:07.817Z,100765.27
2023-04-10T14:37:35.713Z,100761.89
2023-04-10T14:40:04.897Z,100761.65
2023-04-10T14:42:32.848Z,100753.10
2023-04-10T14:45:00.622Z,100745.26
2023-04-10T14:47:28.430Z,100736.98
2023-04-10T14:49:56.240Z,100724.80
2023-04-10T14:52:23.922Z,100730.80
2023-04-10T14:54:51.668Z,100730.48
2023-04-10T14:57:19.368Z,100728.55
2023-04-10T14:59:47.128Z,100730.19
2023-04-10T15:02:15.352Z,100725.45
2023-04-10T15:04:43.195Z,100725.14
2023-04-10T15:07:10.950Z,100716.02
2023-04-10T15:09:38.632Z,100718.85
2023-04-10T15:12:06.690Z,100712.96
2023-04-10T15:14:34.545Z,100704.28
2023-04-10T15:17:02.270Z,100701.26
2023-04-10T15:19:30.387Z,100698.29
2023-04-10T15:21:58.537Z,100696.15
2023-04-10T15:24:27.129Z,100690.73
2023-04-10T15:26:57.667Z,100690.83
2023-04-10T15:29:25.415Z,100687.35
2023-04-10T15:31:53.117Z,100677.74
2023-04-10T15:34:20.735Z,100669.64
2023-04-10T15:36:48.458Z,100669.85
2023-04-10T15:39:16.391Z,100668.11
2023-04-10T15:41:44.251Z,100652.45
2023-04-10T15:44:11.937Z,100639.47
2023-04-10T15:46:39.681Z,100642.41
2023-04-10T15:49:07.470Z,100637.01
2023-04-10T15:51:35.430Z,100637.58
2023-04-10T15:54:04.841Z,100636.63
2023-04-10T15:56:33.389Z,100631.94
2023-04-10T15:59:01.546Z,100636.34
2023-04-10T16:01:29.388Z,100634.19
2023-04-10T16:03:57.431Z,100626.95
2023-04-10T16:06:27.730Z,100615.00
2023-04-10T16:08:55.456Z,100610.63
2023-04-10T16:11:23.547Z,100608.85
2023-04-10T16:13:51.330Z,100604.52
2023-04-10T16:16:19.465Z,100602.86
2023-04-10T16:18:47.703Z,100595.98
2023-04-10T16:21:15.998Z,100595.92
2023-04-10T16:23:43.831Z,100590.77
2023-04-10T16:26:11.729Z,100582.98
2023-04-10T16:28:39.765Z,100587.64
2023-04-10T16:31:08.151Z,100589.30
2023-04-10T16:33:36.146Z,100584.16
2023-04-10T16:36:04.706Z,100576.09
2023-04-10T16:38:35.774Z,100570.77
2023-04-10T16:41:04.567Z,100569.76
2023-04-10T16:43:32.461Z,100566.93
2023-04-10T16:46:00.288Z,100566.56
2023-04-10T16:48:28.088Z,100568.55
2023-04-10T16:50:58.789Z,100565.17
2023-04-10T16:53:26.482Z,100567.82
2023-04-10T16:55:59.052Z,100572.46
2023-04-10T16:58:28.090Z,100570.05
2023-04-10T17:00:55.812Z,100565.13
2023-04-10T17:03:23.605Z,100568.04
2023-04-10T17:05:51.683Z,100565.39
2023-04-10T17:08:19.341Z,100565.41
2023-04-10T17:10:47.056Z,100568.76
2023-04-10T17:13:14.828Z,100567.63
2023-04-10T17:15:42.580Z,100564.42
2023-04-10T17:18:11.210Z,100564.86
2023-04-10T17:20:39.134Z,100567.56
2023-04-10T17:23:07.157Z,100561.56
2023-04-10T17:25:38.569Z,100562.88
2023-04-10T17:28:06.441Z,100563.47
2023-04-10T17:30:34.154Z,100565.73
2023-04-10T17:33:01.875Z,100564.09
2023-04-10T17:35:29.728Z,100568.86
2023-04-10T17:37:57.404Z,100570.90
2023-04-10T17:40:25.151Z,100567.68
2023-04-10T17:42:53.025Z,100568.27
2023-04-10T17:45:20.944Z,100571.36
2023-04-10T17:47:48.681Z,100571.73
2023-04-10T17:50:16.729Z,100575.25
2023-04-10T17:52:44.534Z,100573.95
2023-04-10T17:55:18.342Z,100577.71
2023-04-10T17:57:49.087Z,100575.55
2023-04-10T18:00:20.551Z,100575.13
2023-04-10T18:02:57.869Z,100574.76
2023-04-10T18:05:37.417Z,100580.15
2023-04-10T18:08:06.205Z,100582.72
2023-04-10T18:10:34.529Z,100580.02
2023-04-10T18:13:02.603Z,100579.58
2023-04-10T18:15:30.615Z,100579.45
2023-04-10T18:17:58.592Z,100578.28
2023-04-10T18:20:26.685Z,100580.58
2023-04-10T18:22:54.528Z,100584.74
2023-04-10T18:25:22.269Z,100589.98
2023-04-10T18:28:09.637Z,100594.64
2023-04-10T18:30:39.050Z,100598.55
2023-04-10T18:33:10.658Z,100600.20
2023-04-10T18:35:39.349Z,100602.02
2023-04-10T18:38:07.309Z,100607.30
2023-04-10T18:40:36.810Z,100607.13
2023-04-10T18:43:05.120Z,100609.46
2023-04-10T18:45:34.852Z,100611.20
2023-04-10T18:48:03.238Z,100614.14
2023-04-10T18:50:34.074Z,100613.67
2023-04-10T18:53:01.920Z,100617.14
2023-04-10T18:55:29.886Z,100616.67
2023-04-10T18:57:57.928Z,100621.15
2023-04-10T19:00:25.939Z,100620.09
2023-04-10T19:02:54.543Z,100613.37
2023-04-10T19:05:22.866Z,100616.23
2023-04-10T19:08:03.120Z,100614.68
2023-04-10T19:10:36.980Z,100613.77
2023-04-10T19:13:04.836Z,100617.34
2023-04-10T19:15:32.872Z,100612.64
2023-04-10T19:18:01.042Z,100612.84
2023-04-10T19:20:49.012Z,100615.18
2023-04-10T19:23:16.697Z,100613.02
2023-04-10T19:25:44.757Z,100615.48
2023-04-10T19:28:12.446Z,100612.59
2023-04-10T19:30:40.150Z,100614.04
2023-04-10T19:33:07.902Z,100613.15
2023-04-10T19:35:35.661Z,100611.80
2023-04-10T19:38:03.415Z,100613.85
2023-04-10T19:40:32.080Z,100610.73
2023-04-10T19:43:01.914Z,100614.77
2023-04-10T19:45:32.099Z,100614.90
2023-04-10T19:48:00.519Z,100614.38
2023-04-10T19:50:30.053Z,100611.80
2023-04-10T19:52:58.077Z,100615.65
2023-04-10T19:55:26.461Z,100608.14
2023-04-10T19:57:54.845Z,100608.59
2023-04-10T20:00:22.622Z,100606.09
2023-04-10T20:02:50.456Z,100602.45
2023-04-10T20:05:18.586Z,100601.88
2023-04-10T20:07:46.697Z,100594.93
2023-04-10T20:10:14.393Z,100595.23
2023-04-10T20:12:42.125Z,100599.39
2023-04-10T20:15:10.255Z,100600.51
2023-04-10T20:17:38.580Z,100597.67
2023-04-10T20:20:06.761Z,100595.51
2023-04-10T20:22:34.382Z,100599.09
2023-04-10T20:25:02.106Z,100591.61
2023-04-10T20:27:29.789Z,100587.98
2023-04-10T20:29:57.488Z,100586.67
2023-04-10T20:32:25.399Z,100589.47
2023-04-10T20:34:53.200Z,100586.76
2023-04-10T20:37:21.948Z,100589.51
2023-04-10T20:39:50.767Z,100584.89
2023-04-10T20:42:18.805Z,100591.64
2023-04-10T20:44:46.551Z,100590.60
2023-04-10T20:47:14.274Z,100590.43
2023-04-10T20:49:42.114Z,100584.42
2023-04-10T20:52:09.796Z,100583.52
2023-04-10T20:54:37.469Z,100578.76
2023-04-10T20:57:05.914Z,100580.17
2023-04-10T20:59:35.619Z,100580.59
2023-04-10T21:02:03.829Z,100577.58
2023-04-10T21:04:32.692Z,100579.34
2023-04-10T21:07:00.363Z,100571.95
2023-04-10T21:09:28.094Z,100568.79
2023-04-10T21:11:55.773Z,100564.44
2023-04-10T21:14:23.429Z,100561.29
2023-04-10T21:16:51.267Z,100563.02
2023-04-10T21:19:19.112Z,100559.66
2023-04-10T21:21:46.782Z,100561.85
2023-04-10T21:24:14.494Z,100559.41
2023-04-10T21:26:42.219Z,100556.77
2023-04-10T21:29:09.980Z,100551.59
2023-04-10T21:31:37.767Z,100544.02
2023-04-10T21:34:05.662Z,100542.59
2023-04-10T21:36:33.441Z,100540.53
2023-04-10T21:39:01.419Z,100537.41
2023-04-10T21:41:29.163Z,100537.77
2023-04-10T21:44:00.213Z,100535.07
2023-04-10T21:46:27.964Z,100534.20
2023-04-10T21:48:55.998Z,100531.11
2023-04-10T21:51:25.738Z,100526.95
2023-04-10T21:53:54.632Z,100525.14
2023-04-10T21:56:22.343Z,100527.19
2023-04-10T21:58:50.129Z,100522.99
2023-04-10T22:01:17.861Z,100524.84
2023-04-10T22:03:45.665Z,100515.91
2023-04-10T22:06:13.504Z,100515.13
2023-04-10T22:08:41.268Z,100518.36
2023-04-10T22:11:08.986Z,100518.11
2023-04-10T22:13:36.694Z,100514.29
2023-04-10T22:16:05.677Z,100508.86
2023-04-10T22:18:33.451Z,100505.33
2023-04-10T22:21:01.215Z,100507.32
2023-04-10T22:23:28.955Z,100499.04
2023-04-10T22:25:59.088Z,100491.27
2023-04-10T22:28:27.558Z,100483.55
2023-04-10T22:30:55.367Z,100485.55
2023-04-10T22:33:23.128Z,100483.11
2023-04-10T22:35:52.434Z,100479.54
2023-04-10T22:38:20.250Z,100472.65
2023-04-10T22:40:47.967Z,100471.40
2023-04-10T22:43:15.819Z,100467.75
2023-04-10T22:45:43.462Z,100465.04
2023-04-10T22:48:11.189Z,100459.13
2023-04-10T22:50:39.010Z,100451.05
2023-04-10T22:53:06.752Z,100451.66
2023-04-10T22:55:36.899Z,100448.25
2023-04-10T22:58:04.744Z,100444.31
2023-04-10T23:00:35.489Z,100439.99
2023-04-10T23:03:03.559Z,100434.61
2023-04-10T23:05:33.013Z,100429.80
2023-04-10T23:08:00.859Z,100424.14
2023-04-10T23:10:28.583Z,100422.19
2023-04-10T23:12:56.268Z,100415.11
2023-04-10T23:15:23.953Z,100414.00
2023-04-10T23:17:51.693Z,100411.70
2023-04-10T23:20:19.571Z,100402.93
2023-04-10T23:22:47.279Z,100394.60
2023-04-10T23:25:15.601Z,100386.64
2023-04-10T23:27:43.330Z,100387.41
2023-04-10T23:30:11.379Z,100377.54
2023-04-10T23:32:39.055Z,100369.89
2023-04-10T23:35:06.993Z,100365.83
2023-04-10T23:37:35.244Z,100366.04
2023-04-10T23:40:02.963Z,100358.06
2023-04-10T23:42:31.224Z,100353.64
2023-04-10T23:44:58.852Z,100352.41
2023-04-10T23:47:26.833Z,100348.06
2023-04-10T23:49:54.890Z,100341.41
2023-04-10T23:52:22.505Z,100338.33
2023-04-10T23:54:50.436Z,100334.50
2023-04-10T23:57:18.177Z,100330.47
2023-04-10T23:59:46.678Z,100325.91
